Time;durP1;ratioP1;P1;durP2;ratioP2;P2;SDS_P1;SDS_P2;PMS_P1;PMS_P2;Temp;Humidity;BMP_temperature;BMP_pressure;BME280_temperature;BME280_humidity;BME280_pressure;Samples;Min_cycle;Max_cycle;Signal;HPM_P1;HPM_P2
2022/04/01 00:02:05;;;;;;;5.85;1.70;;;0.50;99.90;;;;;;6214316;23;20071;-79
2022/04/01 00:04:30;;;;;;;3.78;1.90;;;0.50;99.90;;;;;;6213374;23;20092;-79
2022/04/01 00:06:56;;;;;;;2.40;1.63;;;0.50;99.90;;;;;;6213371;23;20020;-79
2022/04/01 00:09:23;;;;;;;3.28;1.52;;;0.50;99.90;;;;;;6212940;23;20016;-79
2022/04/01 00:11:48;;;;;;;6.60;1.67;;;0.50;99.90;;;;;;6212766;23;20024;-78
2022/04/01 00:14:14;;;;;;;2.75;1.73;;;0.50;99.90;;;;;;6212708;23;20350;-79
2022/04/01 00:16:39;;;;;;;3.67;1.70;;;0.50;99.90;;;;;;6212837;23;20008;-80
2022/04/01 00:19:05;;;;;;;2.90;1.85;;;0.50;99.90;;;;;;6213212;23;20035;-79
2022/04/01 00:21:31;;;;;;;4.38;2.25;;;0.50;99.90;;;;;;6213191;23;20381;-78
2022/04/01 00:23:56;;;;;;;2.08;1.45;;;0.50;99.90;;;;;;6213032;23;20008;-79
2022/04/01 00:26:22;;;;;;;3.38;2.08;;;0.50;99.90;;;;;;6213975;23;20020;-79
2022/04/01 00:28:47;;;;;;;5.07;1.92;;;0.50;99.90;;;;;;6214114;23;20094;-79
2022/04/01 00:31:13;;;;;;;2.25;1.38;;;0.40;99.90;;;;;;6213481;23;20032;-78
2022/04/01 00:33:39;;;;;;;4.30;2.15;;;0.50;99.90;;;;;;6213731;23;20016;-79
2022/04/01 00:36:05;;;;;;;1.80;1.30;;;0.40;99.90;;;;;;6214304;23;20048;-79
2022/04/01 00:38:31;;;;;;;5.47;1.60;;;0.50;99.90;;;;;;6213799;23;20415;-79
2022/04/01 00:40:58;;;;;;;4.25;1.73;;;0.50;99.90;;;;;;6212509;23;20008;-79
2022/04/01 00:43:32;;;;;;;3.65;1.55;;;0.50;99.90;;;;;;6214202;23;20087;-79
2022/04/01 00:45:58;;;;;;;2.55;1.25;;;0.50;99.90;;;;;;6213893;23;20023;-78
2022/04/01 00:48:25;;;;;;;2.50;1.10;;;0.50;99.90;;;;;;6216332;23;20016;-79
2022/04/01 00:50:51;;;;;;;2.30;1.27;;;0.40;99.90;;;;;;6192285;23;20009;-78
2022/04/01 00:53:22;;;;;;;3.17;1.52;;;0.40;99.90;;;;;;6191777;23;20009;-79
2022/04/01 00:55:47;;;;;;;1.27;1.17;;;0.40;99.90;;;;;;6215411;23;20064;-79
2022/04/01 00:58:13;;;;;;;2.63;1.25;;;0.40;99.90;;;;;;6190653;23;20054;-79
2022/04/01 01:00:38;;;;;;;0.82;0.70;;;0.40;99.90;;;;;;6217486;23;20004;-80
2022/04/01 01:03:05;;;;;;;2.92;1.05;;;0.40;99.90;;;;;;6191626;23;20357;-79
2022/04/01 01:05:31;;;;;;;2.53;1.52;;;0.40;99.90;;;;;;6215584;23;20020;-79
2022/04/01 01:07:57;;;;;;;1.88;1.05;;;0.40;99.90;;;;;;6191412;23;20093;-78
2022/04/01 01:10:24;;;;;;;2.35;1.27;;;0.50;99.90;;;;;;6216866;23;20036;-78
2022/04/01 01:12:51;;;;;;;4.82;1.10;;;0.40;99.90;;;;;;6190085;23;20013;-78
2022/04/01 01:15:18;;;;;;;2.40;1.42;;;0.40;99.90;;;;;;6192714;23;20020;-78
2022/04/01 01:17:45;;;;;;;2.63;1.50;;;0.40;99.90;;;;;;6220901;23;20350;-79
2022/04/01 01:20:12;;;;;;;3.17;1.45;;;0.50;99.90;;;;;;6189948;23;20031;-79
2022/04/01 01:22:49;;;;;;;2.60;1.45;;;0.40;99.90;;;;;;6214211;23;20008;-79
2022/04/01 01:25:16;;;;;;;1.48;1.08;;;0.50;99.90;;;;;;6215506;23;20008;-79
2022/04/01 01:27:43;;;;;;;1.55;1.10;;;0.40;99.90;;;;;;6189069;23;20044;-78
2022/04/01 01:30:09;;;;;;;1.00;0.88;;;0.50;99.90;;;;;;6214573;23;20024;-79
2022/04/01 01:32:35;;;;;;;1.80;1.15;;;0.40;99.90;;;;;;6214540;23;20013;-80
2022/04/01 01:35:03;;;;;;;3.53;1.15;;;0.40;99.90;;;;;;6214345;23;20017;-79
2022/04/01 01:37:28;;;;;;;1.60;1.23;;;0.40;99.90;;;;;;6214529;23;20020;-80
2022/04/01 01:39:55;;;;;;;5.50;1.77;;;0.40;99.90;;;;;;6216028;23;20105;-79
2022/04/01 01:42:20;;;;;;;2.55;1.30;;;0.40;99.90;;;;;;6214413;23;20086;-79
2022/04/01 01:44:46;;;;;;;1.77;0.90;;;0.40;99.90;;;;;;6189313;23;20009;-79
2022/04/01 01:47:12;;;;;;;2.20;0.93;;;0.50;99.90;;;;;;6214272;23;20016;-79
2022/04/01 01:54:42;;;;;;;3.10;1.52;;;0.50;99.90;;;;;;6189292;23;20008;-80
2022/04/01 01:55:08;;;;;;;4.30;1.23;;;0.40;99.90;;;;;;6215399;23;20027;-79
2022/04/01 01:57:35;;;;;;;1.17;0.90;;;0.50;99.90;;;;;;6214390;23;20021;-78
2022/04/01 02:00:10;;;;;;;1.80;1.00;;;0.50;99.90;;;;;;6190895;23;20012;-79
2022/04/01 02:02:39;;;;;;;2.17;1.55;;;0.40;99.90;;;;;;6192070;23;20009;-80
2022/04/01 02:05:06;;;;;;;2.03;1.40;;;0.50;99.90;;;;;;6190764;23;20084;-78
2022/04/01 02:07:32;;;;;;;1.92;1.30;;;0.50;99.90;;;;;;6215771;23;20517;-79
2022/04/01 02:09:58;;;;;;;1.75;1.20;;;0.50;99.90;;;;;;6216367;23;20017;-79
2022/04/01 02:12:23;;;;;;;2.53;1.50;;;0.50;99.90;;;;;;6188637;23;20453;-78
2022/04/01 02:14:49;;;;;;;3.15;1.33;;;0.50;99.90;;;;;;6189627;23;20139;-78
2022/04/01 02:17:14;;;;;;;1.00;0.75;;;0.50;99.90;;;;;;6214211;23;20032;-77
2022/04/01 02:19:40;;;;;;;1.90;1.42;;;0.60;99.90;;;;;;6188433;23;20040;-79
2022/04/01 02:22:07;;;;;;;2.33;1.23;;;0.50;99.90;;;;;;6189428;23;20020;-79
2022/04/01 02:24:33;;;;;;;2.05;1.30;;;0.60;99.90;;;;;;6189008;23;20005;-79
2022/04/01 02:26:58;;;;;;;5.85;1.88;;;0.50;99.90;;;;;;6214768;23;20361;-79
2022/04/01 02:29:24;;;;;;;3.05;1.20;;;0.50;99.90;;;;;;6214524;23;20016;-78
2022/04/01 02:31:50;;;;;;;1.33;0.90;;;0.50;99.90;;;;;;6187835;23;20405;-76
2022/04/01 02:34:20;;;;;;;6.60;1.42;;;0.50;99.90;;;;;;6187494;23;20016;-76
2022/04/01 02:36:46;;;;;;;1.92;1.40;;;0.60;99.90;;;;;;6212788;23;20479;-76
2022/04/01 02:39:12;;;;;;;2.20;1.58;;;0.50;99.90;;;;;;6214294;23;20012;-76
2022/04/01 02:41:37;;;;;;;2.30;1.08;;;0.50;99.90;;;;;;6187059;23;20017;-77
2022/04/01 02:44:12;;;;;;;2.80;1.40;;;0.50;99.90;;;;;;6212319;23;20024;-76
2022/04/01 02:46:45;;;;;;;1.20;0.90;;;0.50;99.90;;;;;;6212366;23;20017;-76
2022/04/01 02:49:15;;;;;;;1.42;1.15;;;0.50;99.90;;;;;;6187685;23;20013;-76
2022/04/01 02:51:43;;;;;;;6.45;1.75;;;0.50;99.90;;;;;;6187259;23;20017;-76
2022/04/01 02:54:12;;;;;;;2.47;1.52;;;0.40;99.90;;;;;;6187424;23;20417;-76
2022/04/01 02:56:39;;;;;;;2.95;1.42;;;0.50;99.90;;;;;;6187251;23;20059;-76
2022/04/01 02:59:22;;;;;;;2.83;1.30;;;0.50;99.90;;;;;;6187251;23;20015;-76
2022/04/01 03:01:47;;;;;;;1.73;1.63;;;0.50;99.90;;;;;;6212650;23;20009;-79
2022/04/01 03:04:13;;;;;;;2.50;1.05;;;0.40;99.90;;;;;;6187642;23;20322;-78
2022/04/01 03:06:39;;;;;;;2.53;1.30;;;0.40;99.90;;;;;;6212147;23;20016;-76
2022/04/01 03:09:08;;;;;;;2.40;1.02;;;0.40;99.90;;;;;;6187094;23;20103;-76
2022/04/01 03:11:41;;;;;;;2.63;1.40;;;0.40;99.90;;;;;;6187033;23;20031;-76
2022/04/01 03:14:08;;;;;;;1.77;1.20;;;0.40;99.90;;;;;;6187446;23;20020;-76
2022/04/01 03:16:44;;;;;;;2.10;1.30;;;0.40;99.90;;;;;;6212028;23;20025;-79
2022/04/01 03:19:10;;;;;;;2.58;1.00;;;0.40;99.90;;;;;;6214052;23;20092;-76
2022/04/01 03:21:39;;;;;;;1.27;1.17;;;0.40;99.90;;;;;;6214171;23;20013;-77
2022/04/01 03:24:05;;;;;;;2.33;1.27;;;0.40;99.90;;;;;;6211915;23;20422;-78
2022/04/01 03:26:31;;;;;;;2.83;1.40;;;0.40;99.90;;;;;;6187024;23;20099;-77
2022/04/01 03:28:59;;;;;;;4.25;1.77;;;0.40;99.90;;;;;;6212080;23;20044;-77
2022/04/01 03:31:25;;;;;;;2.92;1.20;;;0.40;99.90;;;;;;6211664;23;20394;-78
2022/04/01 03:33:51;;;;;;;2.35;1.40;;;0.40;99.90;;;;;;6187416;23;20013;-78
2022/04/01 03:36:18;;;;;;;2.65;1.23;;;0.40;99.90;;;;;;6212311;23;20021;-78
2022/04/01 03:38:43;;;;;;;3.63;1.17;;;0.40;99.90;;;;;;6215708;23;20090;-78
2022/04/01 03:41:10;;;;;;;5.75;1.50;;;0.40;99.90;;;;;;6220632;23;20584;-78
2022/04/01 03:43:37;;;;;;;2.20;1.27;;;0.40;99.90;;;;;;6213368;23;20055;-78
2022/04/01 03:46:08;;;;;;;2.85;1.50;;;0.50;99.90;;;;;;6212349;23;20005;-77
2022/04/01 03:48:45;;;;;;;5.72;1.50;;;0.40;99.90;;;;;;6212492;23;20019;-77
2022/04/01 03:51:17;;;;;;;2.85;1.65;;;0.40;99.90;;;;;;6212513;23;20017;-80
2022/04/01 03:53:56;;;;;;;3.15;1.17;;;0.40;99.90;;;;;;6212491;23;20055;-78
2022/04/01 03:56:28;;;;;;;2.55;1.65;;;0.50;99.90;;;;;;6212726;23;20013;-78
2022/04/01 03:59:02;;;;;;;6.25;1.48;;;0.50;99.90;;;;;;6212713;23;20008;-78
2022/04/01 04:01:28;;;;;;;1.90;1.27;;;0.50;99.90;;;;;;6212729;23;20015;-78
2022/04/01 04:03:57;;;;;;;1.42;1.13;;;0.60;99.90;;;;;;6212429;23;20020;-78
2022/04/01 04:06:24;;;;;;;4.38;1.10;;;0.60;99.90;;;;;;6187822;23;20020;-78
2022/04/01 04:08:57;;;;;;;5.45;1.40;;;0.60;99.90;;;;;;6214377;23;20442;-79
2022/04/01 04:11:31;;;;;;;2.40;1.77;;;0.70;99.90;;;;;;6214369;23;20013;-78
2022/04/01 04:13:59;;;;;;;1.70;1.00;;;0.70;99.90;;;;;;6212510;23;20438;-79
2022/04/01 04:16:27;;;;;;;3.22;1.13;;;0.70;99.90;;;;;;6214100;23;20375;-78
2022/04/01 04:19:02;;;;;;;1.80;1.15;;;0.70;99.90;;;;;;6212580;23;20151;-78
2022/04/01 04:21:30;;;;;;;1.50;1.20;;;0.80;99.90;;;;;;6213013;23;20023;-78
2022/04/01 04:24:03;;;;;;;3.60;1.65;;;0.80;99.90;;;;;;6214450;23;20016;-78
2022/04/01 04:26:37;;;;;;;8.68;4.72;;;0.90;99.90;;;;;;6215164;23;20017;-80
2022/04/01 04:29:10;;;;;;;6.05;1.70;;;0.90;99.90;;;;;;6214718;23;20017;-78
2022/04/01 04:31:38;;;;;;;2.75;1.50;;;0.90;99.90;;;;;;6214691;23;20044;-78
2022/04/01 04:34:09;;;;;;;3.42;1.45;;;0.90;99.90;;;;;;6190133;23;20016;-79
2022/04/01 04:36:38;;;;;;;3.45;1.75;;;1.00;99.90;;;;;;6189490;23;20473;-79
2022/04/01 04:39:06;;;;;;;2.35;1.25;;;1.00;99.90;;;;;;6214838;23;20012;-78
2022/04/01 04:41:33;;;;;;;2.50;1.08;;;1.00;99.90;;;;;;6216314;23;20012;-79
2022/04/01 04:43:59;;;;;;;2.85;2.38;;;1.10;99.90;;;;;;6216266;23;20009;-78
2022/04/01 04:46:30;;;;;;;1.90;1.60;;;1.10;99.90;;;;;;6189664;23;20465;-78
2022/04/01 04:48:56;;;;;;;2.80;1.75;;;1.20;99.90;;;;;;6215181;23;20012;-79
2022/04/01 04:51:24;;;;;;;3.60;1.48;;;1.20;99.90;;;;;;6216604;23;20008;-79
2022/04/01 04:53:50;;;;;;;2.20;1.10;;;1.20;99.90;;;;;;6189656;23;20319;-78
2022/04/01 04:56:18;;;;;;;1.77;1.20;;;1.20;99.90;;;;;;6217333;23;20043;-78
2022/04/01 04:58:44;;;;;;;2.00;1.20;;;1.20;99.90;;;;;;6217083;23;20008;-79
2022/04/01 05:01:24;;;;;;;2.38;1.30;;;1.30;99.90;;;;;;6216611;23;20350;-80
2022/04/01 05:04:02;;;;;;;2.50;1.00;;;1.30;99.90;;;;;;6215894;23;20496;-80
2022/04/01 05:06:36;;;;;;;4.20;1.58;;;1.30;99.90;;;;;;6216418;23;20024;-77
2022/04/01 05:09:34;;;;;;;2.90;1.20;;;1.30;99.90;;;;;;6214202;23;20012;-78
2022/04/01 05:12:16;;;;;;;2.90;1.33;;;1.30;99.90;;;;;;6189201;23;20019;-77
2022/04/01 05:15:08;;;;;;;3.25;1.45;;;1.30;99.90;;;;;;6189115;23;20417;-77
2022/04/01 05:18:05;;;;;;;2.17;1.38;;;1.30;99.90;;;;;;6189329;23;20063;-77
2022/04/01 05:20:35;;;;;;;23.55;10.20;;;1.30;99.90;;;;;;6213410;23;20485;-78
2022/04/01 05:23:18;;;;;;;14.25;6.55;;;1.30;99.90;;;;;;6188768;23;20013;-78
2022/04/01 05:25:56;;;;;;;4.78;1.95;;;1.30;99.90;;;;;;6188628;23;20009;-77
2022/04/01 05:28:28;;;;;;;5.80;2.08;;;1.30;99.90;;;;;;6213897;23;20048;-78
2022/04/01 05:31:18;;;;;;;5.03;1.83;;;1.40;99.90;;;;;;6213594;23;20099;-77
2022/04/01 05:34:09;;;;;;;1.90;1.27;;;1.30;99.90;;;;;;6212960;23;20016;-77
2022/04/01 05:36:37;;;;;;;2.10;1.13;;;1.30;99.90;;;;;;6188330;23;20319;-77
2022/04/01 05:39:03;;;;;;;13.50;7.80;;;1.30;99.90;;;;;;6188990;23;20012;-77
2022/04/01 05:41:30;;;;;;;11.63;4.68;;;1.30;99.90;;;;;;6188361;23;20350;-77
2022/04/01 05:43:57;;;;;;;10.65;5.10;;;1.40;99.90;;;;;;6188620;23;20017;-77
2022/04/01 05:46:25;;;;;;;9.10;3.70;;;1.30;99.90;;;;;;6214971;23;20012;-77
2022/04/01 05:48:53;;;;;;;6.72;2.67;;;1.40;99.90;;;;;;6215128;23;20052;-78
2022/04/01 05:51:19;;;;;;;5.90;4.15;;;1.40;99.90;;;;;;6187992;23;20004;-78
2022/04/01 05:53:46;;;;;;;6.15;2.15;;;1.40;99.90;;;;;;6188663;23;20015;-78
2022/04/01 05:56:14;;;;;;;3.65;1.60;;;1.50;99.90;;;;;;6213236;23;20342;-78
2022/04/01 05:58:42;;;;;;;5.82;1.98;;;1.40;99.90;;;;;;6188164;23;20005;-78
2022/04/01 06:01:27;;;;;;;5.30;1.35;;;1.50;99.90;;;;;;6188267;23;20016;-77
2022/04/01 06:04:11;;;;;;;1.42;0.82;;;1.50;99.90;;;;;;6215657;23;20015;-78
2022/04/01 06:06:45;;;;;;;6.35;1.27;;;1.50;99.90;;;;;;6196099;23;20012;-77
2022/04/01 06:09:36;;;;;;;2.70;0.90;;;1.60;99.90;;;;;;6214919;23;20016;-78
2022/04/01 06:12:23;;;;;;;3.60;0.98;;;1.60;99.90;;;;;;6212880;23;20091;-78
2022/04/01 06:15:07;;;;;;;2.20;0.73;;;1.60;99.90;;;;;;6187997;23;20012;-77
2022/04/01 06:17:41;;;;;;;1.98;0.50;;;1.70;99.90;;;;;;6212753;23;20016;-78
2022/04/01 06:20:08;;;;;;;10.80;4.95;;;1.70;99.90;;;;;;6187188;23;20039;-79
2022/04/01 06:22:39;;;;;;;5.85;2.47;;;1.80;99.90;;;;;;6214023;23;20373;-78
2022/04/01 06:25:13;;;;;;;5.10;1.40;;;1.70;99.90;;;;;;6212930;23;20066;-78
2022/04/01 06:27:54;;;;;;;1.52;1.13;;;1.90;99.90;;;;;;6212668;23;20437;-79
2022/04/01 06:30:21;;;;;;;2.78;1.00;;;1.90;99.90;;;;;;6212421;23;20116;-78
2022/04/01 06:32:59;;;;;;;5.85;1.27;;;1.90;99.90;;;;;;6212838;23;20095;-80
2022/04/01 06:35:29;;;;;;;1.35;0.80;;;2.00;99.90;;;;;;6212594;23;20017;-79
2022/04/01 06:38:00;;;;;;;1.67;0.88;;;2.00;99.90;;;;;;6212482;23;20017;-80
2022/04/01 06:40:53;;;;;;;1.33;0.80;;;2.10;99.90;;;;;;6214407;23;20040;-78
2022/04/01 06:43:18;;;;;;;0.60;0.60;;;2.10;99.90;;;;;;6187192;23;20410;-78
2022/04/01 06:45:44;;;;;;;4.47;1.10;;;2.10;99.90;;;;;;6187542;23;20091;-78
2022/04/01 06:48:10;;;;;;;6.72;1.38;;;2.10;99.90;;;;;;6212814;23;20008;-78
2022/04/01 06:50:37;;;;;;;3.47;1.20;;;2.10;99.90;;;;;;6186963;23;20024;-78
2022/04/01 06:53:02;;;;;;;1.20;0.80;;;2.20;99.90;;;;;;6212098;23;20020;-79
2022/04/01 06:55:28;;;;;;;1.70;0.80;;;2.20;99.90;;;;;;6188613;23;20013;-79
2022/04/01 06:57:54;;;;;;;2.35;0.95;;;2.20;99.90;;;;;;6188072;23;20056;-79
2022/04/01 07:00:20;;;;;;;2.35;0.93;;;2.30;99.90;;;;;;6213783;23;20017;-79
2022/04/01 07:02:46;;;;;;;0.85;0.60;;;2.40;99.90;;;;;;6213356;23;20009;-79
2022/04/01 07:05:13;;;;;;;2.17;1.15;;;2.30;99.90;;;;;;6212919;23;20090;-77
2022/04/01 07:07:43;;;;;;;13.32;6.57;;;2.40;99.90;;;;;;6186470;23;20066;-77
2022/04/01 07:10:11;;;;;;;3.05;1.92;;;2.40;99.90;;;;;;6212084;23;20013;-77
2022/04/01 07:12:37;;;;;;;2.25;1.23;;;2.50;99.90;;;;;;6211743;23;20054;-77
2022/04/01 07:15:03;;;;;;;1.75;1.10;;;2.50;99.90;;;;;;6212624;23;20012;-76
2022/04/01 07:17:29;;;;;;;1.45;0.80;;;2.50;99.90;;;;;;6211816;23;20016;-77
2022/04/01 07:19:55;;;;;;;2.63;1.00;;;2.50;99.90;;;;;;6212758;23;20513;-76
2022/04/01 07:22:21;;;;;;;3.35;1.10;;;2.70;99.90;;;;;;6212980;23;20008;-77
2022/04/01 07:24:47;;;;;;;1.02;0.80;;;2.70;99.90;;;;;;6213443;23;20080;-76
2022/04/01 07:27:12;;;;;;;1.70;0.93;;;2.70;99.90;;;;;;6211822;23;20063;-77
2022/04/01 07:29:38;;;;;;;2.40;1.05;;;2.80;99.90;;;;;;6213236;23;20075;-75
2022/04/01 07:34:49;;;;;;;3.85;1.20;;;2.90;99.90;;;;;;6211675;23;20070;-77
2022/04/01 07:37:15;;;;;;;2.97;0.95;;;3.00;99.90;;;;;;6210839;23;20387;-76
2022/04/01 07:39:41;;;;;;;2.33;1.40;;;3.00;99.90;;;;;;6210867;23;20036;-76
2022/04/01 07:42:07;;;;;;;2.03;1.13;;;3.10;99.90;;;;;;6211477;23;20009;-76
2022/04/01 07:44:32;;;;;;;2.03;0.80;;;3.20;99.90;;;;;;6185975;23;20477;-77
2022/04/01 07:47:00;;;;;;;1.13;0.68;;;3.30;99.90;;;;;;6186087;23;20016;-79
2022/04/01 07:49:25;;;;;;;2.28;0.80;;;3.20;99.90;;;;;;6213704;23;20037;-79
2022/04/01 07:51:51;;;;;;;2.78;1.23;;;3.10;99.90;;;;;;6210930;23;20027;-77
2022/04/01 07:54:16;;;;;;;3.45;1.60;;;3.10;99.90;;;;;;6212823;23;20017;-77
2022/04/01 07:56:42;;;;;;;0.75;0.70;;;3.10;99.90;;;;;;6211860;23;20020;-77
2022/04/01 07:59:10;;;;;;;3.72;1.75;;;3.10;99.90;;;;;;6212477;23;20457;-77
2022/04/01 08:01:36;;;;;;;1.73;0.70;;;3.20;99.90;;;;;;6210485;23;20016;-77
2022/04/01 08:04:03;;;;;;;2.90;1.00;;;3.10;99.90;;;;;;6211612;23;20454;-77
2022/04/01 08:06:30;;;;;;;3.22;1.00;;;3.10;99.90;;;;;;6209982;23;20021;-78
2022/04/01 08:08:58;;;;;;;1.73;1.20;;;3.20;99.90;;;;;;6212194;23;20338;-77
2022/04/01 08:11:26;;;;;;;4.32;1.05;;;3.20;99.90;;;;;;6211728;23;20086;-79
2022/04/01 08:13:53;;;;;;;1.85;1.17;;;3.20;99.90;;;;;;6185353;23;20099;-78
2022/04/01 08:16:18;;;;;;;3.33;1.27;;;3.10;99.90;;;;;;6185786;23;20032;-79
2022/04/01 08:18:44;;;;;;;3.08;1.25;;;3.20;99.90;;;;;;6215305;23;20008;-80
2022/04/01 08:21:10;;;;;;;5.63;1.30;;;3.10;99.90;;;;;;6187093;23;20458;-79
2022/04/01 08:23:37;;;;;;;2.40;1.58;;;3.10;99.90;;;;;;6185767;23;20020;-79
2022/04/01 08:26:04;;;;;;;5.47;1.30;;;3.10;99.90;;;;;;6186031;23;20044;-79
2022/04/01 08:28:30;;;;;;;4.18;2.13;;;3.10;99.90;;;;;;6210844;23;20115;-79
2022/04/01 08:30:55;;;;;;;2.90;1.45;;;3.20;99.90;;;;;;6210312;23;20446;-79
2022/04/01 08:33:21;;;;;;;2.75;1.98;;;3.20;99.90;;;;;;6213567;23;20020;-78
2022/04/01 08:35:47;;;;;;;5.55;1.30;;;3.30;99.90;;;;;;6222393;23;20032;-79
2022/04/01 08:38:13;;;;;;;3.47;2.42;;;3.50;99.90;;;;;;6219681;23;20360;-78
2022/04/01 08:40:39;;;;;;;2.38;1.60;;;3.50;99.90;;;;;;6212429;23;20355;-78
2022/04/01 08:43:05;;;;;;;4.65;1.70;;;3.70;99.90;;;;;;6210365;23;20044;-78
2022/04/01 08:45:37;;;;;;;2.92;1.63;;;3.80;99.90;;;;;;6212104;23;20013;-78
2022/04/01 08:48:04;;;;;;;4.28;2.17;;;3.80;99.90;;;;;;6211877;23;20012;-78
2022/04/01 08:50:30;;;;;;;3.67;1.90;;;3.80;99.90;;;;;;6184402;23;20526;-79
2022/04/01 08:52:56;;;;;;;5.18;2.30;;;3.70;99.90;;;;;;6210249;23;20095;-78
2022/04/01 08:55:22;;;;;;;5.30;2.63;;;3.60;99.90;;;;;;6210541;23;20030;-79
2022/04/01 08:57:47;;;;;;;4.53;2.50;;;3.60;99.90;;;;;;6184704;23;20028;-79
2022/04/01 09:00:16;;;;;;;6.15;2.45;;;3.70;99.90;;;;;;6209250;23;20015;-78
2022/04/01 09:02:58;;;;;;;6.03;3.10;;;3.60;99.90;;;;;;6184876;23;20016;-79
2022/04/01 09:05:23;;;;;;;5.43;1.92;;;3.60;99.90;;;;;;6211595;23;20020;-78
2022/04/01 09:08:05;;;;;;;7.40;3.55;;;3.60;99.90;;;;;;6210791;23;20358;-78
2022/04/01 09:10:48;;;;;;;3.63;2.40;;;3.70;99.90;;;;;;6211654;23;20474;-78
2022/04/01 09:13:13;;;;;;;6.10;2.92;;;3.70;99.90;;;;;;6213811;23;20205;-79
2022/04/01 09:15:42;;;;;;;4.35;2.72;;;3.80;99.90;;;;;;6211837;23;20017;-79
2022/04/01 09:18:08;;;;;;;5.07;3.20;;;3.80;99.90;;;;;;6213699;23;20023;-79
2022/04/01 09:20:51;;;;;;;4.88;2.88;;;3.70;99.90;;;;;;6211923;23;20017;-79
2022/04/01 09:23:23;;;;;;;5.82;4.38;;;3.70;99.90;;;;;;6214092;23;20043;-80
2022/04/01 09:25:51;;;;;;;7.18;3.17;;;3.70;99.90;;;;;;6212567;23;20004;-79
2022/04/01 09:28:34;;;;;;;4.35;2.83;;;3.70;99.90;;;;;;6212106;23;20020;-80
2022/04/01 09:31:13;;;;;;;7.65;3.42;;;3.60;99.90;;;;;;6212043;23;20064;-80
2022/04/01 09:33:50;;;;;;;6.43;3.22;;;3.60;99.90;;;;;;6212376;23;20016;-79
2022/04/01 09:36:29;;;;;;;6.13;2.60;;;3.60;99.90;;;;;;6187249;23;20091;-79
2022/04/01 09:39:01;;;;;;;6.50;4.25;;;3.60;99.90;;;;;;6212358;23;20113;-79
2022/04/01 09:41:36;;;;;;;8.45;4.13;;;3.70;99.90;;;;;;6212139;23;20437;-79
2022/04/01 09:44:12;;;;;;;6.05;3.33;;;3.60;99.90;;;;;;6212282;23;20051;-79
2022/04/01 09:46:47;;;;;;;5.97;2.95;;;3.50;99.90;;;;;;6211984;23;20067;-79
2022/04/01 09:49:14;;;;;;;4.40;3.20;;;3.50;99.90;;;;;;6187589;23;20013;-79
2022/04/01 09:51:43;;;;;;;5.47;3.28;;;3.40;99.90;;;;;;6186971;23;20027;-79
2022/04/01 09:54:10;;;;;;;5.20;3.60;;;3.30;99.90;;;;;;6212245;23;20085;-79
2022/04/01 09:56:46;;;;;;;7.75;3.53;;;3.30;99.90;;;;;;6211940;23;20013;-79
2022/04/01 09:59:14;;;;;;;8.38;3.42;;;3.50;99.90;;;;;;6186543;23;20025;-79
2022/04/01 10:01:41;;;;;;;7.22;3.85;;;3.60;99.90;;;;;;6186585;23;20479;-78
2022/04/01 10:04:08;;;;;;;6.75;3.95;;;3.70;99.90;;;;;;6212839;23;20080;-78
2022/04/01 10:06:35;;;;;;;15.25;6.35;;;3.70;99.90;;;;;;6212750;23;20020;-79
2022/04/01 10:09:07;;;;;;;7.85;3.70;;;3.90;99.90;;;;;;6212923;23;20091;-79
2022/04/01 10:11:35;;;;;;;;;;;3.80;99.90;;;;;;6214553;23;20426;-79
2022/04/01 10:14:14;;;;;;;8.43;4.03;;;3.80;99.90;;;;;;6212785;23;19912;-79
2022/04/01 10:16:42;;;;;;;6.75;4.07;;;3.80;99.90;;;;;;6212202;23;20089;-79
2022/04/01 10:19:12;;;;;;;5.78;3.05;;;3.90;99.90;;;;;;6213961;23;20012;-79
2022/04/01 10:21:41;;;;;;;8.27;4.43;;;4.10;99.90;;;;;;6212310;23;20327;-79
2022/04/01 10:24:17;;;;;;;7.22;3.40;;;4.20;99.90;;;;;;6214467;23;20044;-79
2022/04/01 10:27:21;;;;;;;7.25;3.97;;;4.30;99.90;;;;;;6213178;23;20013;-79
2022/04/01 10:29:47;;;;;;;4.72;3.28;;;4.40;99.90;;;;;;6165747;23;20593;-79
2022/04/01 10:32:38;;;;;;;5.57;3.72;;;4.40;99.90;;;;;;6213046;23;20016;-80
2022/04/01 10:35:06;;;;;;;6.82;3.50;;;4.30;99.90;;;;;;6214182;23;20414;-81
2022/04/01 10:37:33;;;;;;;5.32;3.33;;;4.30;99.90;;;;;;6188412;23;20450;-80
2022/04/01 10:40:05;;;;;;;7.30;3.42;;;4.40;99.90;;;;;;6188840;23;20091;-81
2022/04/01 10:42:36;;;;;;;6.22;3.97;;;4.60;99.90;;;;;;6216049;23;20015;-83
2022/04/01 10:45:20;;;;;;;7.63;3.33;;;4.70;99.90;;;;;;6188680;23;20004;-79
2022/04/01 10:53:39;;;;;;;5.43;3.88;;;4.80;99.90;;;;;;6215186;23;20024;-79
2022/04/01 10:56:36;;;;;;;8.93;3.75;;;4.70;99.90;;;;;;6217532;23;20013;-79
2022/04/01 10:59:13;;;;;;;5.18;4.05;;;4.60;99.90;;;;;;6209614;23;20024;-80
2022/04/01 11:01:49;;;;;;;7.07;4.13;;;4.50;99.90;;;;;;6188933;23;20012;-79
2022/04/01 11:04:18;;;;;;;7.45;4.60;;;4.10;99.90;;;;;;6213261;23;20524;-79
2022/04/01 11:07:07;;;;;;;6.00;4.07;;;4.10;99.90;;;;;;6213881;23;20016;-80
2022/04/01 11:09:51;;;;;;;6.88;5.05;;;4.00;99.90;;;;;;6217881;23;20079;-79
2022/04/01 11:12:20;;;;;;;7.22;4.45;;;4.00;99.90;;;;;;6195787;23;20016;-81
2022/04/01 11:15:09;;;;;;;7.35;3.15;;;3.90;99.90;;;;;;6218198;23;20479;-81
2022/04/01 11:17:35;;;;;;;5.43;3.80;;;3.80;99.90;;;;;;6212047;23;20047;-80
2022/04/01 11:20:19;;;;;;;6.75;2.75;;;3.80;99.90;;;;;;6186389;23;20009;-81
2022/04/01 11:22:53;;;;;;;4.15;2.60;;;3.70;99.90;;;;;;6212260;23;20104;-79
2022/04/01 11:25:22;;;;;;;2.72;2.00;;;3.80;99.90;;;;;;6211800;23;20015;-80
2022/04/01 11:27:57;;;;;;;3.67;2.30;;;3.80;99.90;;;;;;6211899;23;20092;-80
2022/04/01 11:30:25;;;;;;;3.20;1.92;;;3.90;99.90;;;;;;6186838;23;20470;-80
2022/04/01 11:32:59;;;;;;;4.10;2.38;;;3.90;99.90;;;;;;6212790;23;20023;-79
2022/04/01 11:35:31;;;;;;;3.40;1.83;;;3.80;99.90;;;;;;6212704;23;20017;-80
2022/04/01 11:37:59;;;;;;;6.40;2.40;;;3.80;99.90;;;;;;6187239;23;20016;-79
2022/04/01 11:40:30;;;;;;;3.50;1.80;;;3.90;99.90;;;;;;6212829;23;20019;-79
2022/04/01 11:43:08;;;;;;;3.33;2.10;;;4.00;99.90;;;;;;6213903;23;20076;-81
2022/04/01 11:45:39;;;;;;;3.13;1.70;;;3.90;99.90;;;;;;6188057;23;20009;-81
2022/04/01 11:48:15;;;;;;;3.13;1.50;;;3.90;99.90;;;;;;6212601;23;20024;-80
2022/04/01 11:50:45;;;;;;;4.25;2.35;;;3.90;99.90;;;;;;6212310;23;20078;-80
2022/04/01 11:53:26;;;;;;;6.75;2.35;;;3.90;99.90;;;;;;6187806;23;20017;-80
2022/04/01 11:55:54;;;;;;;6.45;2.72;;;3.90;99.90;;;;;;6212443;23;20099;-80
2022/04/01 11:58:22;;;;;;;6.20;2.33;;;4.10;99.90;;;;;;6187346;23;20022;-81
2022/04/01 12:00:48;;;;;;;5.45;2.15;;;4.20;99.90;;;;;;6187814;23;20008;-80
2022/04/01 12:03:14;;;;;;;7.72;2.97;;;4.20;99.90;;;;;;6214987;23;20008;-80
2022/04/01 12:05:40;;;;;;;4.90;2.05;;;4.10;99.90;;;;;;6212148;23;20019;-81
2022/04/01 12:10:58;;;;;;;6.13;2.05;;;4.10;99.90;;;;;;6216048;23;20021;-80
2022/04/01 12:13:29;;;;;;;8.15;2.92;;;4.10;99.90;;;;;;6212482;23;20044;-81
2022/04/01 12:15:57;;;;;;;2.08;1.55;;;4.20;99.90;;;;;;6212094;23;20346;-80
2022/04/01 12:18:26;;;;;;;6.60;1.95;;;4.20;99.90;;;;;;6213554;23;20039;-81
2022/04/01 12:20:55;;;;;;;7.10;2.15;;;4.30;99.90;;;;;;6186941;23;20087;-81
2022/04/01 12:23:22;;;;;;;4.32;1.48;;;4.40;99.90;;;;;;6187760;23;20013;-80
2022/04/01 12:25:50;;;;;;;4.50;2.15;;;4.40;99.90;;;;;;6212320;23;20438;-81
2022/04/01 12:28:20;;;;;;;4.32;1.95;;;4.50;99.90;;;;;;6187440;23;20020;-80
2022/04/01 12:30:51;;;;;;;6.10;3.05;;;4.60;99.90;;;;;;6211294;23;20084;-81
2022/04/01 12:33:24;;;;;;;3.03;1.58;;;4.80;99.90;;;;;;6212990;23;20012;-81
2022/04/01 12:35:57;;;;;;;2.53;1.67;;;4.80;99.90;;;;;;6188098;23;20012;-81
2022/04/01 12:38:24;;;;;;;5.07;1.98;;;4.90;99.90;;;;;;6193108;23;20012;-81
2022/04/01 12:40:53;;;;;;;2.80;1.58;;;4.80;99.90;;;;;;6213416;23;20012;-80
2022/04/01 12:43:40;;;;;;;4.47;2.25;;;4.80;99.90;;;;;;6188500;23;20044;-80
2022/04/01 12:46:17;;;;;;;1.55;1.30;;;4.80;99.90;;;;;;6215927;23;20008;-81
2022/04/01 12:48:54;;;;;;;2.65;1.40;;;4.80;99.90;;;;;;6192567;23;20503;-82
2022/04/01 12:51:25;;;;;;;2.65;1.25;;;4.90;99.90;;;;;;6193208;23;20020;-81
2022/04/01 12:54:01;;;;;;;4.17;1.80;;;4.80;99.90;;;;;;6224266;23;20399;-81
2022/04/01 12:56:39;;;;;;;5.05;1.90;;;4.80;99.90;;;;;;6194681;23;20005;-81
2022/04/01 12:59:10;;;;;;;4.28;1.67;;;4.90;99.90;;;;;;6221129;23;20012;-81
2022/04/01 13:01:38;;;;;;;4.95;1.55;;;4.90;99.90;;;;;;6196592;23;20058;-81
2022/04/01 13:04:07;;;;;;;2.15;1.35;;;4.90;99.90;;;;;;6192299;23;20265;-80
2022/04/01 13:06:33;;;;;;;2.90;1.38;;;5.00;99.90;;;;;;6217974;23;20016;-80
2022/04/01 13:08:59;;;;;;;3.22;1.60;;;5.00;99.90;;;;;;6221756;23;20368;-81
2022/04/01 13:11:41;;;;;;;2.05;1.23;;;4.90;99.90;;;;;;6220084;23;20449;-80
2022/04/01 13:14:28;;;;;;;3.08;1.85;;;4.90;99.90;;;;;;6224891;23;20008;-81
2022/04/01 13:16:56;;;;;;;2.33;1.13;;;4.90;99.90;;;;;;6225309;23;20009;-80
2022/04/01 13:19:27;;;;;;;2.55;1.60;;;5.00;99.90;;;;;;6219139;23;20018;-82
2022/04/01 13:22:04;;;;;;;1.48;1.27;;;4.90;99.90;;;;;;6192220;23;20063;-80
2022/04/01 13:24:47;;;;;;;2.80;1.65;;;4.70;99.90;;;;;;6216254;23;20472;-81
2022/04/01 13:27:16;;;;;;;2.42;1.10;;;4.70;99.90;;;;;;6191341;23;20023;-80
2022/04/01 13:29:42;;;;;;;4.85;1.52;;;4.70;99.90;;;;;;6214940;23;20013;-80